sensor_id;sensor_type;location;lat;lon;timestamp;P1;durP1;ratioP1;P2;durP2;ratioP2
63016;SDS011;50274;45.640;11.756;2022-12-11T00:00:14;7.25;;;4.82;;
63016;SDS011;50274;45.640;11.756;2022-12-11T00:02:40;6.18;;;3.85;;
63016;SDS011;50274;45.640;11.756;2022-12-11T00:05:06;7.23;;;4.43;;
63016;SDS011;50274;45.640;11.756;2022-12-11T00:07:32;6.80;;;4.32;;
63016;SDS011;50274;45.640;11.756;2022-12-11T00:09:58;6.18;;;3.20;;
63016;SDS011;50274;45.640;11.756;2022-12-11T00:12:24;6.47;;;3.73;;
63016;SDS011;50274;45.640;11.756;2022-12-11T00:14:50;5.47;;;3.03;;
63016;SDS011;50274;45.640;11.756;2022-12-11T00:17:16;6.78;;;3.05;;
63016;SDS011;50274;45.640;11.756;2022-12-11T00:19:42;5.57;;;3.13;;
63016;SDS011;50274;45.640;11.756;2022-12-11T00:22:08;5.07;;;2.85;;
63016;SDS011;50274;45.640;11.756;2022-12-11T00:24:33;5.10;;;2.45;;
63016;SDS011;50274;45.640;11.756;2022-12-11T00:26:59;5.70;;;3.20;;
63016;SDS011;50274;45.640;11.756;2022-12-11T00:29:25;6.00;;;2.42;;
63016;SDS011;50274;45.640;11.756;2022-12-11T00:31:51;5.40;;;2.67;;
63016;SDS011;50274;45.640;11.756;2022-12-11T00:34:17;4.93;;;2.47;;
63016;SDS011;50274;45.640;11.756;2022-12-11T00:36:42;5.57;;;2.95;;
63016;SDS011;50274;45.640;11.756;2022-12-11T00:39:08;7.37;;;3.40;;
63016;SDS011;50274;45.640;11.756;2022-12-11T00:41:34;5.68;;;2.85;;
63016;SDS011;50274;45.640;11.756;2022-12-11T00:44:00;6.90;;;2.60;;
63016;SDS011;50274;45.640;11.756;2022-12-11T00:46:26;7.20;;;3.00;;
63016;SDS011;50274;45.640;11.756;2022-12-11T00:48:52;5.60;;;2.67;;
63016;SDS011;50274;45.640;11.756;2022-12-11T00:51:17;5.70;;;2.50;;
63016;SDS011;50274;45.640;11.756;2022-12-11T00:53:43;5.15;;;2.65;;
63016;SDS011;50274;45.640;11.756;2022-12-11T00:56:12;5.28;;;2.50;;
63016;SDS011;50274;45.640;11.756;2022-12-11T00:58:40;5.27;;;2.67;;
63016;SDS011;50274;45.640;11.756;2022-12-11T01:01:07;7.05;;;3.10;;
63016;SDS011;50274;45.640;11.756;2022-12-11T01:03:34;6.53;;;3.58;;
63016;SDS011;50274;45.640;11.756;2022-12-11T01:06:01;6.97;;;3.78;;
63016;SDS011;50274;45.640;11.756;2022-12-11T01:08:28;6.95;;;3.70;;
63016;SDS011;50274;45.640;11.756;2022-12-11T01:11:04;5.73;;;2.70;;
63016;SDS011;50274;45.640;11.756;2022-12-11T01:13:32;6.53;;;3.42;;
63016;SDS011;50274;45.640;11.756;2022-12-11T01:15:58;7.32;;;3.40;;
63016;SDS011;50274;45.640;11.756;2022-12-11T01:18:24;6.00;;;3.55;;
63016;SDS011;50274;45.640;11.756;2022-12-11T01:20:50;6.13;;;3.40;;
63016;SDS011;50274;45.640;11.756;2022-12-11T01:23:16;6.13;;;3.15;;
63016;SDS011;50274;45.640;11.756;2022-12-11T01:25:42;5.20;;;2.65;;
63016;SDS011;50274;45.640;11.756;2022-12-11T01:28:08;5.33;;;2.60;;
63016;SDS011;50274;45.640;11.756;2022-12-11T01:30:34;5.88;;;2.70;;
63016;SDS011;50274;45.640;11.756;2022-12-11T01:33:00;5.28;;;2.60;;
63016;SDS011;50274;45.640;11.756;2022-12-11T01:35:26;7.35;;;4.20;;
63016;SDS011;50274;45.640;11.756;2022-12-11T01:37:53;7.93;;;3.90;;
63016;SDS011;50274;45.640;11.756;2022-12-11T01:40:19;6.28;;;3.20;;
63016;SDS011;50274;45.640;11.756;2022-12-11T01:42:45;8.02;;;4.00;;
63016;SDS011;50274;45.640;11.756;2022-12-11T01:48:00;6.47;;;3.63;;
63016;SDS011;50274;45.640;11.756;2022-12-11T01:50:49;6.37;;;3.47;;
63016;SDS011;50274;45.640;11.756;2022-12-11T01:53:34;5.80;;;3.03;;
63016;SDS011;50274;45.640;11.756;2022-12-11T01:56:05;6.93;;;3.33;;
63016;SDS011;50274;45.640;11.756;2022-12-11T01:58:33;5.95;;;2.97;;
63016;SDS011;50274;45.640;11.756;2022-12-11T02:01:04;5.20;;;2.53;;
63016;SDS011;50274;45.640;11.756;2022-12-11T02:03:30;6.30;;;2.47;;
63016;SDS011;50274;45.640;11.756;2022-12-11T02:05:59;5.15;;;2.38;;
63016;SDS011;50274;45.640;11.756;2022-12-11T02:08:25;4.70;;;2.20;;
63016;SDS011;50274;45.640;11.756;2022-12-11T02:13:39;5.70;;;1.97;;
63016;SDS011;50274;45.640;11.756;2022-12-11T02:16:35;5.75;;;1.85;;
63016;SDS011;50274;45.640;11.756;2022-12-11T02:21:53;4.95;;;2.20;;
63016;SDS011;50274;45.640;11.756;2022-12-11T02:24:34;5.40;;;2.40;;
63016;SDS011;50274;45.640;11.756;2022-12-11T02:27:10;5.10;;;2.10;;
63016;SDS011;50274;45.640;11.756;2022-12-11T02:30:17;5.60;;;2.00;;
63016;SDS011;50274;45.640;11.756;2022-12-11T02:32:50;5.85;;;2.20;;
63016;SDS011;50274;45.640;11.756;2022-12-11T02:37:55;6.60;;;2.40;;
63016;SDS011;50274;45.640;11.756;2022-12-11T02:40:27;4.40;;;1.73;;
63016;SDS011;50274;45.640;11.756;2022-12-11T02:42:56;6.28;;;2.35;;
63016;SDS011;50274;45.640;11.756;2022-12-11T02:45:26;4.40;;;1.90;;
63016;SDS011;50274;45.640;11.756;2022-12-11T02:47:53;4.47;;;1.60;;
63016;SDS011;50274;45.640;11.756;2022-12-11T02:50:22;4.22;;;1.80;;
63016;SDS011;50274;45.640;11.756;2022-12-11T02:52:50;4.70;;;1.73;;
63016;SDS011;50274;45.640;11.756;2022-12-11T02:55:19;4.60;;;1.63;;
63016;SDS011;50274;45.640;11.756;2022-12-11T02:57:51;4.53;;;1.83;;
63016;SDS011;50274;45.640;11.756;2022-12-11T03:00:30;4.43;;;1.88;;
63016;SDS011;50274;45.640;11.756;2022-12-11T03:02:56;4.60;;;2.10;;
63016;SDS011;50274;45.640;11.756;2022-12-11T03:05:22;4.93;;;2.57;;
63016;SDS011;50274;45.640;11.756;2022-12-11T03:07:48;6.53;;;3.28;;
63016;SDS011;50274;45.640;11.756;2022-12-11T03:10:15;7.97;;;3.80;;
63016;SDS011;50274;45.640;11.756;2022-12-11T03:12:46;8.07;;;3.60;;
63016;SDS011;50274;45.640;11.756;2022-12-11T03:15:16;6.93;;;3.63;;
63016;SDS011;50274;45.640;11.756;2022-12-11T03:20:34;8.30;;;5.15;;
63016;SDS011;50274;45.640;11.756;2022-12-11T03:25:46;7.03;;;4.07;;
63016;SDS011;50274;45.640;11.756;2022-12-11T03:28:38;7.45;;;4.35;;
63016;SDS011;50274;45.640;11.756;2022-12-11T03:31:12;8.48;;;4.90;;
63016;SDS011;50274;45.640;11.756;2022-12-11T03:33:42;6.70;;;4.20;;
63016;SDS011;50274;45.640;11.756;2022-12-11T03:36:13;7.65;;;4.20;;
63016;SDS011;50274;45.640;11.756;2022-12-11T03:38:53;7.30;;;4.50;;
63016;SDS011;50274;45.640;11.756;2022-12-11T03:41:23;9.77;;;5.70;;
63016;SDS011;50274;45.640;11.756;2022-12-11T03:43:52;9.40;;;6.30;;
63016;SDS011;50274;45.640;11.756;2022-12-11T03:46:21;7.97;;;4.88;;
63016;SDS011;50274;45.640;11.756;2022-12-11T03:48:51;9.65;;;5.95;;
63016;SDS011;50274;45.640;11.756;2022-12-11T03:51:20;9.20;;;5.20;;
63016;SDS011;50274;45.640;11.756;2022-12-11T03:53:48;7.43;;;4.28;;
63016;SDS011;50274;45.640;11.756;2022-12-11T03:56:14;7.25;;;3.42;;
63016;SDS011;50274;45.640;11.756;2022-12-11T03:58:43;5.95;;;2.80;;
63016;SDS011;50274;45.640;11.756;2022-12-11T04:01:09;4.87;;;2.23;;
63016;SDS011;50274;45.640;11.756;2022-12-11T04:03:36;4.45;;;2.00;;
63016;SDS011;50274;45.640;11.756;2022-12-11T04:06:02;5.10;;;2.35;;
63016;SDS011;50274;45.640;11.756;2022-12-11T04:08:28;4.90;;;1.95;;
63016;SDS011;50274;45.640;11.756;2022-12-11T04:10:54;6.17;;;1.70;;
63016;SDS011;50274;45.640;11.756;2022-12-11T04:13:39;4.82;;;1.55;;
63016;SDS011;50274;45.640;11.756;2022-12-11T04:16:05;4.00;;;1.50;;
63016;SDS011;50274;45.640;11.756;2022-12-11T04:18:31;5.13;;;1.80;;
63016;SDS011;50274;45.640;11.756;2022-12-11T04:21:16;6.15;;;1.70;;
63016;SDS011;50274;45.640;11.756;2022-12-11T04:24:00;5.00;;;1.93;;
63016;SDS011;50274;45.640;11.756;2022-12-11T04:26:45;4.85;;;1.70;;
63016;SDS011;50274;45.640;11.756;2022-12-11T04:29:12;4.22;;;1.70;;
63016;SDS011;50274;45.640;11.756;2022-12-11T04:31:38;5.20;;;1.70;;
63016;SDS011;50274;45.640;11.756;2022-12-11T04:34:04;4.10;;;1.50;;
63016;SDS011;50274;45.640;11.756;2022-12-11T04:36:30;3.60;;;1.15;;
63016;SDS011;50274;45.640;11.756;2022-12-11T04:38:55;3.92;;;1.30;;
63016;SDS011;50274;45.640;11.756;2022-12-11T04:41:21;4.40;;;1.70;;
63016;SDS011;50274;45.640;11.756;2022-12-11T04:43:47;5.25;;;1.30;;
63016;SDS011;50274;45.640;11.756;2022-12-11T04:46:14;4.77;;;1.40;;
63016;SDS011;50274;45.640;11.756;2022-12-11T04:48:42;3.30;;;0.98;;
63016;SDS011;50274;45.640;11.756;2022-12-11T04:51:08;3.40;;;1.10;;
63016;SDS011;50274;45.640;11.756;2022-12-11T04:53:34;4.38;;;1.25;;
63016;SDS011;50274;45.640;11.756;2022-12-11T04:56:03;3.83;;;1.42;;
63016;SDS011;50274;45.640;11.756;2022-12-11T04:58:30;3.37;;;0.97;;
63016;SDS011;50274;45.640;11.756;2022-12-11T05:00:56;4.05;;;1.00;;
63016;SDS011;50274;45.640;11.756;2022-12-11T05:03:21;3.45;;;1.02;;
63016;SDS011;50274;45.640;11.756;2022-12-11T05:05:50;3.57;;;1.20;;
63016;SDS011;50274;45.640;11.756;2022-12-11T05:08:18;3.22;;;1.00;;
63016;SDS011;50274;45.640;11.756;2022-12-11T05:10:44;3.47;;;1.00;;
63016;SDS011;50274;45.640;11.756;2022-12-11T05:13:19;3.83;;;1.05;;
63016;SDS011;50274;45.640;11.756;2022-12-11T05:15:45;4.33;;;1.13;;
63016;SDS011;50274;45.640;11.756;2022-12-11T05:18:10;3.72;;;1.10;;
63016;SDS011;50274;45.640;11.756;2022-12-11T05:20:36;3.80;;;1.13;;
63016;SDS011;50274;45.640;11.756;2022-12-11T05:23:02;3.28;;;0.90;;
63016;SDS011;50274;45.640;11.756;2022-12-11T05:25:28;3.77;;;1.17;;
63016;SDS011;50274;45.640;11.756;2022-12-11T05:27:53;3.83;;;1.03;;
63016;SDS011;50274;45.640;11.756;2022-12-11T05:30:19;3.38;;;0.90;;
63016;SDS011;50274;45.640;11.756;2022-12-11T05:32:45;3.53;;;1.03;;
63016;SDS011;50274;45.640;11.756;2022-12-11T05:35:11;4.30;;;1.20;;
63016;SDS011;50274;45.640;11.756;2022-12-11T05:37:37;4.07;;;1.17;;
63016;SDS011;50274;45.640;11.756;2022-12-11T05:40:02;5.03;;;1.10;;
63016;SDS011;50274;45.640;11.756;2022-12-11T05:42:30;4.80;;;0.88;;
63016;SDS011;50274;45.640;11.756;2022-12-11T05:44:57;3.00;;;0.70;;
63016;SDS011;50274;45.640;11.756;2022-12-11T05:47:23;3.03;;;0.70;;
63016;SDS011;50274;45.640;11.756;2022-12-11T05:49:49;3.00;;;0.70;;
63016;SDS011;50274;45.640;11.756;2022-12-11T05:52:15;3.00;;;0.73;;
63016;SDS011;50274;45.640;11.756;2022-12-11T05:54:41;3.78;;;0.65;;
63016;SDS011;50274;45.640;11.756;2022-12-11T05:57:07;2.57;;;0.60;;
63016;SDS011;50274;45.640;11.756;2022-12-11T05:59:33;2.30;;;0.60;;
63016;SDS011;50274;45.640;11.756;2022-12-11T06:01:59;3.22;;;0.88;;
63016;SDS011;50274;45.640;11.756;2022-12-11T06:04:25;3.03;;;0.90;;
63016;SDS011;50274;45.640;11.756;2022-12-11T06:06:54;16.85;;;8.75;;
63016;SDS011;50274;45.640;11.756;2022-12-11T06:09:20;10.82;;;7.53;;
63016;SDS011;50274;45.640;11.756;2022-12-11T06:11:46;8.30;;;5.67;;
63016;SDS011;50274;45.640;11.756;2022-12-11T06:14:11;6.82;;;4.90;;
63016;SDS011;50274;45.640;11.756;2022-12-11T06:16:38;6.25;;;4.10;;
63016;SDS011;50274;45.640;11.756;2022-12-11T06:19:04;5.43;;;3.28;;
63016;SDS011;50274;45.640;11.756;2022-12-11T06:21:31;4.90;;;2.70;;
63016;SDS011;50274;45.640;11.756;2022-12-11T06:23:58;4.03;;;2.10;;
63016;SDS011;50274;45.640;11.756;2022-12-11T06:26:26;4.25;;;1.75;;
63016;SDS011;50274;45.640;11.756;2022-12-11T06:28:52;4.43;;;1.70;;
63016;SDS011;50274;45.640;11.756;2022-12-11T06:31:18;4.43;;;1.73;;
63016;SDS011;50274;45.640;11.756;2022-12-11T06:33:45;4.38;;;2.00;;
63016;SDS011;50274;45.640;11.756;2022-12-11T06:36:18;4.10;;;2.20;;
63016;SDS011;50274;45.640;11.756;2022-12-11T06:38:45;4.75;;;1.70;;
63016;SDS011;50274;45.640;11.756;2022-12-11T06:41:14;3.63;;;1.10;;
63016;SDS011;50274;45.640;11.756;2022-12-11T06:43:40;3.27;;;1.17;;
63016;SDS011;50274;45.640;11.756;2022-12-11T06:46:10;3.00;;;0.68;;
63016;SDS011;50274;45.640;11.756;2022-12-11T06:48:38;2.78;;;0.80;;
63016;SDS011;50274;45.640;11.756;2022-12-11T06:51:06;2.97;;;0.60;;
63016;SDS011;50274;45.640;11.756;2022-12-11T06:53:33;2.63;;;0.60;;
63016;SDS011;50274;45.640;11.756;2022-12-11T06:56:07;2.47;;;0.50;;
63016;SDS011;50274;45.640;11.756;2022-12-11T06:58:35;2.58;;;0.50;;
63016;SDS011;50274;45.640;11.756;2022-12-11T07:01:02;2.83;;;0.47;;
63016;SDS011;50274;45.640;11.756;2022-12-11T07:03:29;2.65;;;0.40;;
63016;SDS011;50274;45.640;11.756;2022-12-11T07:06:01;1.97;;;0.40;;
63016;SDS011;50274;45.640;11.756;2022-12-11T07:08:27;2.58;;;0.50;;
63016;SDS011;50274;45.640;11.756;2022-12-11T07:10:53;2.67;;;0.40;;
63016;SDS011;50274;45.640;11.756;2022-12-11T07:13:19;3.03;;;0.70;;
63016;SDS011;50274;45.640;11.756;2022-12-11T07:15:45;3.63;;;1.00;;
63016;SDS011;50274;45.640;11.756;2022-12-11T07:18:11;4.05;;;1.27;;
63016;SDS011;50274;45.640;11.756;2022-12-11T07:20:36;4.03;;;1.30;;
63016;SDS011;50274;45.640;11.756;2022-12-11T07:23:02;4.50;;;1.90;;
63016;SDS011;50274;45.640;11.756;2022-12-11T07:25:28;5.47;;;2.13;;
63016;SDS011;50274;45.640;11.756;2022-12-11T07:27:54;10.35;;;5.10;;
63016;SDS011;50274;45.640;11.756;2022-12-11T07:30:20;15.90;;;8.10;;
63016;SDS011;50274;45.640;11.756;2022-12-11T07:32:46;24.58;;;12.27;;
63016;SDS011;50274;45.640;11.756;2022-12-11T07:35:12;13.80;;;7.50;;
63016;SDS011;50274;45.640;11.756;2022-12-11T07:37:39;11.98;;;5.95;;
63016;SDS011;50274;45.640;11.756;2022-12-11T07:40:05;8.88;;;4.60;;
63016;SDS011;50274;45.640;11.756;2022-12-11T07:42:32;6.00;;;3.00;;
63016;SDS011;50274;45.640;11.756;2022-12-11T07:44:57;5.27;;;2.27;;
63016;SDS011;50274;45.640;11.756;2022-12-11T07:47:23;5.20;;;1.80;;
63016;SDS011;50274;45.640;11.756;2022-12-11T07:49:49;4.25;;;1.30;;
63016;SDS011;50274;45.640;11.756;2022-12-11T07:52:15;4.87;;;1.60;;
63016;SDS011;50274;45.640;11.756;2022-12-11T07:54:41;4.13;;;1.27;;
63016;SDS011;50274;45.640;11.756;2022-12-11T07:57:07;3.80;;;1.08;;
63016;SDS011;50274;45.640;11.756;2022-12-11T07:59:33;3.13;;;0.73;;
63016;SDS011;50274;45.640;11.756;2022-12-11T08:01:59;2.73;;;0.60;;
63016;SDS011;50274;45.640;11.756;2022-12-11T08:04:25;3.17;;;0.80;;
63016;SDS011;50274;45.640;11.756;2022-12-11T08:06:50;2.97;;;0.70;;
63016;SDS011;50274;45.640;11.756;2022-12-11T08:09:17;4.80;;;0.77;;
63016;SDS011;50274;45.640;11.756;2022-12-11T08:11:50;2.90;;;0.63;;
63016;SDS011;50274;45.640;11.756;2022-12-11T08:14:16;2.15;;;0.50;;
63016;SDS011;50274;45.640;11.756;2022-12-11T08:16:43;2.67;;;0.70;;
63016;SDS011;50274;45.640;11.756;2022-12-11T08:19:12;11.17;;;4.23;;
63016;SDS011;50274;45.640;11.756;2022-12-11T08:21:39;7.68;;;3.70;;
63016;SDS011;50274;45.640;11.756;2022-12-11T08:24:05;8.23;;;3.20;;
63016;SDS011;50274;45.640;11.756;2022-12-11T08:26:32;6.22;;;3.00;;
63016;SDS011;50274;45.640;11.756;2022-12-11T08:28:58;9.10;;;4.60;;
63016;SDS011;50274;45.640;11.756;2022-12-11T08:31:25;7.53;;;4.47;;
63016;SDS011;50274;45.640;11.756;2022-12-11T08:33:51;5.70;;;3.20;;
63016;SDS011;50274;45.640;11.756;2022-12-11T08:36:19;5.85;;;3.15;;
63016;SDS011;50274;45.640;11.756;2022-12-11T08:38:46;5.63;;;2.70;;
63016;SDS011;50274;45.640;11.756;2022-12-11T08:41:16;4.78;;;2.40;;
63016;SDS011;50274;45.640;11.756;2022-12-11T08:43:50;5.03;;;2.20;;
63016;SDS011;50274;45.640;11.756;2022-12-11T08:46:22;5.40;;;2.58;;
63016;SDS011;50274;45.640;11.756;2022-12-11T08:48:50;5.72;;;2.60;;
63016;SDS011;50274;45.640;11.756;2022-12-11T08:51:17;5.10;;;2.42;;
63016;SDS011;50274;45.640;11.756;2022-12-11T08:53:45;4.43;;;2.10;;
63016;SDS011;50274;45.640;11.756;2022-12-11T08:56:12;5.63;;;2.10;;
63016;SDS011;50274;45.640;11.756;2022-12-11T08:58:39;4.50;;;2.35;;
63016;SDS011;50274;45.640;11.756;2022-12-11T09:01:12;4.80;;;2.05;;
63016;SDS011;50274;45.640;11.756;2022-12-11T09:03:40;3.85;;;1.85;;
63016;SDS011;50274;45.640;11.756;2022-12-11T09:06:06;4.32;;;1.70;;
63016;SDS011;50274;45.640;11.756;2022-12-11T09:08:34;4.40;;;1.30;;
63016;SDS011;50274;45.640;11.756;2022-12-11T09:11:01;3.75;;;1.10;;
63016;SDS011;50274;45.640;11.756;2022-12-11T09:13:28;4.20;;;1.50;;
63016;SDS011;50274;45.640;11.756;2022-12-11T09:15:54;3.67;;;1.40;;
63016;SDS011;50274;45.640;11.756;2022-12-11T09:18:20;5.37;;;1.60;;
63016;SDS011;50274;45.640;11.756;2022-12-11T09:20:46;4.35;;;1.73;;
63016;SDS011;50274;45.640;11.756;2022-12-11T09:23:12;5.15;;;2.20;;
63016;SDS011;50274;45.640;11.756;2022-12-11T09:25:40;5.67;;;2.00;;
63016;SDS011;50274;45.640;11.756;2022-12-11T09:28:06;4.20;;;1.60;;
63016;SDS011;50274;45.640;11.756;2022-12-11T09:30:32;4.38;;;1.70;;
63016;SDS011;50274;45.640;11.756;2022-12-11T09:32:58;4.70;;;1.93;;
63016;SDS011;50274;45.640;11.756;2022-12-11T09:35:24;7.97;;;2.70;;
63016;SDS011;50274;45.640;11.756;2022-12-11T09:37:49;4.93;;;2.00;;
63016;SDS011;50274;45.640;11.756;2022-12-11T09:40:15;5.20;;;1.90;;
63016;SDS011;50274;45.640;11.756;2022-12-11T09:42:57;6.65;;;2.95;;
63016;SDS011;50274;45.640;11.756;2022-12-11T09:45:29;5.93;;;2.38;;
63016;SDS011;50274;45.640;11.756;2022-12-11T09:47:55;4.53;;;1.70;;
63016;SDS011;50274;45.640;11.756;2022-12-11T09:50:31;5.88;;;1.77;;
63016;SDS011;50274;45.640;11.756;2022-12-11T09:53:06;4.05;;;1.58;;
63016;SDS011;50274;45.640;11.756;2022-12-11T10:01:18;4.25;;;1.17;;
63016;SDS011;50274;45.640;11.756;2022-12-11T10:03:57;3.78;;;1.10;;
63016;SDS011;50274;45.640;11.756;2022-12-11T10:09:14;4.70;;;2.13;;
63016;SDS011;50274;45.640;11.756;2022-12-11T10:11:51;5.70;;;2.37;;
63016;SDS011;50274;45.640;11.756;2022-12-11T10:17:05;5.28;;;2.40;;
63016;SDS011;50274;45.640;11.756;2022-12-11T10:19:44;4.88;;;1.75;;
63016;SDS011;50274;45.640;11.756;2022-12-11T10:22:20;4.68;;;2.05;;
63016;SDS011;50274;45.640;11.756;2022-12-11T10:25:01;5.33;;;2.30;;
63016;SDS011;50274;45.640;11.756;2022-12-11T10:27:30;4.75;;;1.92;;
63016;SDS011;50274;45.640;11.756;2022-12-11T10:32:34;4.53;;;1.70;;
63016;SDS011;50274;45.640;11.756;2022-12-11T10:35:24;4.95;;;1.88;;
63016;SDS011;50274;45.640;11.756;2022-12-11T10:37:54;4.53;;;1.67;;
63016;SDS011;50274;45.640;11.756;2022-12-11T10:40:53;4.68;;;1.67;;
63016;SDS011;50274;45.640;11.756;2022-12-11T10:43:40;4.97;;;1.60;;
63016;SDS011;50274;45.640;11.756;2022-12-11T10:46:19;5.05;;;1.80;;
63016;SDS011;50274;45.640;11.756;2022-12-11T10:48:51;4.03;;;1.40;;
63016;SDS011;50274;45.640;11.756;2022-12-11T10:54:03;6.18;;;1.52;;
63016;SDS011;50274;45.640;11.756;2022-12-11T10:56:49;4.38;;;1.13;;
63016;SDS011;50274;45.640;11.756;2022-12-11T10:59:21;3.72;;;1.30;;
63016;SDS011;50274;45.640;11.756;2022-12-11T11:01:57;3.35;;;1.00;;
63016;SDS011;50274;45.640;11.756;2022-12-11T11:04:27;3.17;;;1.00;;
63016;SDS011;50274;45.640;11.756;2022-12-11T11:07:12;3.72;;;1.05;;
63016;SDS011;50274;45.640;11.756;2022-12-11T11:09:49;3.80;;;1.30;;
63016;SDS011;50274;45.640;11.756;2022-12-11T11:12:27;4.07;;;1.35;;
63016;SDS011;50274;45.640;11.756;2022-12-11T11:15:00;3.83;;;1.20;;
63016;SDS011;50274;45.640;11.756;2022-12-11T11:17:29;4.47;;;1.35;;
63016;SDS011;50274;45.640;11.756;2022-12-11T11:19:57;4.57;;;1.50;;
63016;SDS011;50274;45.640;11.756;2022-12-11T11:22:30;5.47;;;1.80;;
63016;SDS011;50274;45.640;11.756;2022-12-11T11:24:57;7.05;;;2.30;;
63016;SDS011;50274;45.640;11.756;2022-12-11T11:27:33;7.30;;;2.20;;
63016;SDS011;50274;45.640;11.756;2022-12-11T11:30:05;7.68;;;2.40;;
63016;SDS011;50274;45.640;11.756;2022-12-11T11:32:56;5.97;;;2.05;;
63016;SDS011;50274;45.640;11.756;2022-12-11T11:35:27;6.03;;;1.90;;
63016;SDS011;50274;45.640;11.756;2022-12-11T11:40:29;6.10;;;1.77;;
63016;SDS011;50274;45.640;11.756;2022-12-11T11:48:37;4.43;;;1.17;;
63016;SDS011;50274;45.640;11.756;2022-12-11T11:51:27;3.90;;;1.00;;
63016;SDS011;50274;45.640;11.756;2022-12-11T11:53:59;3.63;;;0.90;;
63016;SDS011;50274;45.640;11.756;2022-12-11T11:56:32;3.65;;;1.00;;
63016;SDS011;50274;45.640;11.756;2022-12-11T11:59:11;4.18;;;1.27;;
63016;SDS011;50274;45.640;11.756;2022-12-11T12:01:39;4.00;;;1.60;;
63016;SDS011;50274;45.640;11.756;2022-12-11T12:04:07;3.80;;;1.30;;
63016;SDS011;50274;45.640;11.756;2022-12-11T12:09:16;4.15;;;1.60;;
63016;SDS011;50274;45.640;11.756;2022-12-11T12:11:54;4.38;;;1.33;;
63016;SDS011;50274;45.640;11.756;2022-12-11T12:15:01;3.95;;;1.27;;
63016;SDS011;50274;45.640;11.756;2022-12-11T12:17:44;4.80;;;1.98;;
63016;SDS011;50274;45.640;11.756;2022-12-11T12:20:34;4.43;;;1.17;;
63016;SDS011;50274;45.640;11.756;2022-12-11T12:26:09;3.85;;;1.20;;
63016;SDS011;50274;45.640;11.756;2022-12-11T12:34:54;3.87;;;1.13;;
63016;SDS011;50274;45.640;11.756;2022-12-11T12:37:38;4.43;;;1.23;;
63016;SDS011;50274;45.640;11.756;2022-12-11T12:46:05;6.93;;;2.13;;
63016;SDS011;50274;45.640;11.756;2022-12-11T12:48:52;5.37;;;1.70;;
63016;SDS011;50274;45.640;11.756;2022-12-11T12:51:20;5.25;;;1.75;;
63016;SDS011;50274;45.640;11.756;2022-12-11T12:53:48;5.47;;;1.73;;
63016;SDS011;50274;45.640;11.756;2022-12-11T12:56:21;5.00;;;1.75;;
63016;SDS011;50274;45.640;11.756;2022-12-11T12:58:47;4.78;;;1.70;;
63016;SDS011;50274;45.640;11.756;2022-12-11T13:01:18;4.50;;;1.67;;
63016;SDS011;50274;45.640;11.756;2022-12-11T13:03:54;4.75;;;1.70;;
63016;SDS011;50274;45.640;11.756;2022-12-11T13:06:32;5.22;;;2.10;;
63016;SDS011;50274;45.640;11.756;2022-12-11T13:09:36;5.85;;;2.20;;
63016;SDS011;50274;45.640;11.756;2022-12-11T13:11:55;5.70;;;2.00;;
63016;SDS011;50274;45.640;11.756;2022-12-11T13:14:28;4.95;;;1.85;;
63016;SDS011;50274;45.640;11.756;2022-12-11T13:17:07;4.95;;;1.88;;
63016;SDS011;50274;45.640;11.756;2022-12-11T13:19:50;4.72;;;2.00;;
63016;SDS011;50274;45.640;11.756;2022-12-11T13:22:45;5.60;;;2.08;;
63016;SDS011;50274;45.640;11.756;2022-12-11T13:25:23;4.60;;;1.60;;
63016;SDS011;50274;45.640;11.756;2022-12-11T13:28:03;4.38;;;1.90;;
63016;SDS011;50274;45.640;11.756;2022-12-11T13:30:30;8.20;;;2.50;;
63016;SDS011;50274;45.640;11.756;2022-12-11T13:33:06;6.35;;;2.30;;
63016;SDS011;50274;45.640;11.756;2022-12-11T13:35:40;5.78;;;2.20;;
63016;SDS011;50274;45.640;11.756;2022-12-11T13:38:07;5.60;;;2.40;;
63016;SDS011;50274;45.640;11.756;2022-12-11T13:40:41;4.57;;;2.00;;
63016;SDS011;50274;45.640;11.756;2022-12-11T13:43:18;4.88;;;1.52;;
63016;SDS011;50274;45.640;11.756;2022-12-11T13:45:52;4.70;;;1.83;;
63016;SDS011;50274;45.640;11.756;2022-12-11T13:48:28;4.80;;;1.63;;
63016;SDS011;50274;45.640;11.756;2022-12-11T13:51:19;5.68;;;1.88;;
63016;SDS011;50274;45.640;11.756;2022-12-11T13:53:46;5.32;;;2.00;;
63016;SDS011;50274;45.640;11.756;2022-12-11T13:56:15;5.10;;;2.13;;
63016;SDS011;50274;45.640;11.756;2022-12-11T13:58:43;5.27;;;2.03;;
63016;SDS011;50274;45.640;11.756;2022-12-11T14:01:42;5.95;;;2.00;;
63016;SDS011;50274;45.640;11.756;2022-12-11T14:04:02;4.78;;;1.95;;
63016;SDS011;50274;45.640;11.756;2022-12-11T14:06:32;4.85;;;2.53;;
63016;SDS011;50274;45.640;11.756;2022-12-11T14:08:59;5.75;;;2.85;;
63016;SDS011;50274;45.640;11.756;2022-12-11T14:11:32;5.67;;;3.07;;
63016;SDS011;50274;45.640;11.756;2022-12-11T14:14:01;6.97;;;3.70;;
63016;SDS011;50274;45.640;11.756;2022-12-11T14:16:31;5.40;;;2.75;;
63016;SDS011;50274;45.640;11.756;2022-12-11T14:19:00;5.30;;;2.70;;
63016;SDS011;50274;45.640;11.756;2022-12-11T14:21:29;5.47;;;2.90;;
63016;SDS011;50274;45.640;11.756;2022-12-11T14:23:56;5.17;;;2.93;;
63016;SDS011;50274;45.640;11.756;2022-12-11T14:26:27;5.57;;;2.70;;
63016;SDS011;50274;45.640;11.756;2022-12-11T14:28:58;4.72;;;2.55;;
63016;SDS011;50274;45.640;11.756;2022-12-11T14:31:34;5.85;;;2.30;;
63016;SDS011;50274;45.640;11.756;2022-12-11T14:34:05;6.30;;;3.25;;
63016;SDS011;50274;45.640;11.756;2022-12-11T14:36:37;5.73;;;3.30;;
63016;SDS011;50274;45.640;11.756;2022-12-11T14:39:27;5.68;;;2.83;;
63016;SDS011;50274;45.640;11.756;2022-12-11T14:44:33;12.30;;;6.75;;
63016;SDS011;50274;45.640;11.756;2022-12-11T14:47:09;10.88;;;5.38;;
63016;SDS011;50274;45.640;11.756;2022-12-11T14:49:47;9.60;;;5.33;;
63016;SDS011;50274;45.640;11.756;2022-12-11T14:52:41;6.60;;;3.50;;
63016;SDS011;50274;45.640;11.756;2022-12-11T14:55:24;7.35;;;3.28;;
63016;SDS011;50274;45.640;11.756;2022-12-11T14:57:56;7.45;;;3.20;;
63016;SDS011;50274;45.640;11.756;2022-12-11T15:00:32;10.85;;;5.57;;
63016;SDS011;50274;45.640;11.756;2022-12-11T15:05:26;8.20;;;4.80;;
63016;SDS011;50274;45.640;11.756;2022-12-11T15:10:39;5.63;;;2.63;;
63016;SDS011;50274;45.640;11.756;2022-12-11T15:13:24;4.43;;;2.00;;
63016;SDS011;50274;45.640;11.756;2022-12-11T15:15:50;5.03;;;2.13;;
63016;SDS011;50274;45.640;11.756;2022-12-11T15:18:24;5.68;;;1.98;;
63016;SDS011;50274;45.640;11.756;2022-12-11T15:20:55;4.95;;;2.30;;
63016;SDS011;50274;45.640;11.756;2022-12-11T15:23:26;5.90;;;2.47;;
63016;SDS011;50274;45.640;11.756;2022-12-11T15:25:54;4.88;;;2.00;;
63016;SDS011;50274;45.640;11.756;2022-12-11T15:28:32;5.00;;;2.00;;
63016;SDS011;50274;45.640;11.756;2022-12-11T15:31:01;5.47;;;1.95;;
63016;SDS011;50274;45.640;11.756;2022-12-11T15:33:45;4.50;;;2.03;;
63016;SDS011;50274;45.640;11.756;2022-12-11T15:39:00;5.43;;;2.53;;
63016;SDS011;50274;45.640;11.756;2022-12-11T15:41:27;7.05;;;2.95;;
63016;SDS011;50274;45.640;11.756;2022-12-11T15:43:57;6.65;;;3.05;;
63016;SDS011;50274;45.640;11.756;2022-12-11T15:46:26;7.07;;;3.58;;
63016;SDS011;50274;45.640;11.756;2022-12-11T15:48:52;7.30;;;3.03;;
63016;SDS011;50274;45.640;11.756;2022-12-11T15:51:19;6.68;;;3.33;;
63016;SDS011;50274;45.640;11.756;2022-12-11T15:53:47;8.05;;;3.88;;
63016;SDS011;50274;45.640;11.756;2022-12-11T15:56:14;8.40;;;4.15;;
63016;SDS011;50274;45.640;11.756;2022-12-11T15:58:41;7.93;;;3.70;;
63016;SDS011;50274;45.640;11.756;2022-12-11T16:01:09;8.90;;;4.27;;